Time;durP1;ratioP1;P1;durP2;ratioP2;P2;SDS_P1;SDS_P2;PMS_P1;PMS_P2;Temp;Humidity;BMP_temperature;BMP_pressure;BME280_temperature;BME280_humidity;BME280_pressure;Samples;Min_cycle;Max_cycle;Signal;HPM_P1;HPM_P2
2021/05/13 00:01:58;;;;;;;22.63;6.38;;;11.60;99.90;;;;;;5009267;28;20064;-61
2021/05/13 00:04:24;;;;;;;24.33;5.50;;;11.50;99.90;;;;;;5011192;28;20061;-61
2021/05/13 00:06:50;;;;;;;25.60;5.63;;;11.50;99.90;;;;;;5009308;28;20168;-60
2021/05/13 00:09:15;;;;;;;23.02;5.75;;;11.60;99.90;;;;;;5009644;28;20073;-60
2021/05/13 00:11:44;;;;;;;20.70;6.07;;;11.50;99.90;;;;;;5013112;28;20177;-61
2021/05/13 00:14:10;;;;;;;25.83;6.13;;;11.50;99.90;;;;;;5011052;28;20076;-60
2021/05/13 00:16:37;;;;;;;21.02;5.75;;;11.50;99.90;;;;;;5009177;28;20061;-60
2021/05/13 00:19:10;;;;;;;33.78;11.77;;;11.40;99.90;;;;;;5010662;28;20038;-62
2021/05/13 00:21:38;;;;;;;19.35;5.72;;;11.40;99.90;;;;;;4996183;28;20034;-60
2021/05/13 00:24:05;;;;;;;18.45;5.38;;;11.40;99.90;;;;;;5010113;28;20450;-61
2021/05/13 00:26:38;;;;;;;26.15;6.43;;;11.40;99.90;;;;;;5009047;28;20388;-60
2021/05/13 00:29:05;;;;;;;24.35;6.05;;;11.40;99.90;;;;;;5010529;28;20038;-61
2021/05/13 00:31:32;;;;;;;31.20;6.97;;;11.40;99.90;;;;;;5008053;28;20180;-61
2021/05/13 00:34:00;;;;;;;25.05;6.55;;;11.30;99.90;;;;;;5011865;28;20044;-60
2021/05/13 00:36:27;;;;;;;26.13;6.57;;;11.30;99.90;;;;;;5012715;28;20034;-60
2021/05/13 00:38:53;;;;;;;30.60;6.63;;;11.30;99.90;;;;;;5013541;28;20042;-61
2021/05/13 00:41:19;;;;;;;29.13;7.10;;;11.30;99.90;;;;;;5012326;28;20041;-62
2021/05/13 00:43:44;;;;;;;21.63;6.40;;;11.30;99.90;;;;;;5014098;28;20036;-60
2021/05/13 00:46:10;;;;;;;25.58;7.45;;;11.30;99.90;;;;;;5012436;28;20392;-61
2021/05/13 00:48:39;;;;;;;25.40;7.20;;;11.30;99.90;;;;;;5013101;28;20562;-62
2021/05/13 00:51:05;;;;;;;23.52;6.85;;;11.30;99.90;;;;;;5013287;28;20030;-61
2021/05/13 00:53:30;;;;;;;24.95;6.45;;;11.30;99.90;;;;;;5013092;28;20049;-60
2021/05/13 00:55:56;;;;;;;29.00;7.07;;;11.30;99.90;;;;;;5012473;28;20045;-60
2021/05/13 00:58:26;;;;;;;25.90;7.03;;;11.30;99.90;;;;;;5012688;28;20092;-61
2021/05/13 01:01:04;;;;;;;23.52;6.35;;;11.20;99.90;;;;;;5012353;28;20046;-62
2021/05/13 01:03:33;;;;;;;21.98;6.65;;;11.30;99.90;;;;;;5013193;28;20034;-61
2021/05/13 01:05:59;;;;;;;21.55;6.25;;;11.20;99.90;;;;;;5012251;28;20490;-60
2021/05/13 01:08:25;;;;;;;27.98;5.95;;;11.20;99.90;;;;;;5012700;28;20045;-61
2021/05/13 01:10:50;;;;;;;24.10;6.38;;;11.20;99.90;;;;;;5011228;28;20046;-61
2021/05/13 01:13:20;;;;;;;28.85;6.28;;;11.20;99.90;;;;;;5013069;28;20048;-60
2021/05/13 01:18:30;;;;;;;20.38;5.57;;;11.20;99.90;;;;;;5002608;28;20145;-60
2021/05/13 01:20:56;;;;;;;29.20;5.55;;;11.10;99.90;;;;;;5011637;28;20606;-61
2021/05/13 01:23:22;;;;;;;26.42;5.53;;;11.10;99.90;;;;;;5012479;28;20034;-60
2021/05/13 01:25:53;;;;;;;20.75;4.80;;;11.20;99.90;;;;;;5011324;28;20034;-60
2021/05/13 01:28:26;;;;;;;20.73;5.30;;;11.20;99.90;;;;;;5012792;28;20088;-60
2021/05/13 01:30:54;;;;;;;20.67;5.07;;;11.20;99.90;;;;;;5011501;28;20034;-61
2021/05/13 01:33:23;;;;;;;16.67;4.85;;;11.20;99.90;;;;;;5012525;28;20116;-60
2021/05/13 01:35:50;;;;;;;24.13;5.22;;;11.30;99.90;;;;;;5016332;28;20117;-62
2021/05/13 01:38:17;;;;;;;23.98;5.75;;;11.30;99.90;;;;;;5012012;28;20034;-61
2021/05/13 01:40:58;;;;;;;21.25;5.55;;;11.40;99.90;;;;;;5011843;28;20057;-59
2021/05/13 01:43:26;;;;;;;23.95;5.68;;;11.30;99.90;;;;;;5012787;28;20030;-61
2021/05/13 01:45:52;;;;;;;24.27;6.22;;;11.20;99.90;;;;;;5014575;28;20479;-62
2021/05/13 01:48:17;;;;;;;22.52;6.00;;;11.20;99.90;;;;;;5012183;28;20034;-60
2021/05/13 01:50:47;;;;;;;24.35;6.28;;;11.20;99.90;;;;;;5020091;28;20033;-61
2021/05/13 01:53:13;;;;;;;25.38;6.68;;;11.20;99.90;;;;;;5013185;28;20159;-61
2021/05/13 01:55:38;;;;;;;26.13;7.32;;;11.10;99.90;;;;;;5011290;28;20030;-62
2021/05/13 01:58:04;;;;;;;25.92;7.00;;;11.10;99.90;;;;;;5011860;28;20038;-62
2021/05/13 02:00:31;;;;;;;25.42;6.30;;;11.10;99.90;;;;;;5011285;28;20100;-61
2021/05/13 02:02:57;;;;;;;24.60;6.50;;;11.20;99.90;;;;;;5011094;28;20165;-60
2021/05/13 02:05:23;;;;;;;24.00;6.43;;;11.20;99.90;;;;;;5012975;28;20034;-63
2021/05/13 02:07:49;;;;;;;31.13;6.80;;;11.20;99.90;;;;;;5011201;28;20121;-62
2021/05/13 02:10:17;;;;;;;24.52;6.32;;;11.20;99.90;;;;;;5011640;28;20072;-60
2021/05/13 02:12:43;;;;;;;16.25;5.35;;;11.20;99.90;;;;;;4987484;28;20052;-61
2021/05/13 02:15:13;;;;;;;19.52;5.32;;;11.20;99.90;;;;;;5013713;28;20042;-62
2021/05/13 02:17:39;;;;;;;19.92;5.22;;;11.30;99.90;;;;;;5014674;28;20450;-58
2021/05/13 02:20:08;;;;;;;21.55;5.88;;;11.20;99.90;;;;;;4999989;28;20129;-62
2021/05/13 02:22:33;;;;;;;34.88;6.57;;;11.30;99.90;;;;;;5011029;28;20053;-60
2021/05/13 02:24:59;;;;;;;25.38;6.07;;;11.40;99.90;;;;;;5010748;28;20867;-61
2021/05/13 02:27:25;;;;;;;19.17;5.13;;;11.50;99.90;;;;;;4993193;28;20479;-60
2021/05/13 02:29:50;;;;;;;24.23;5.95;;;11.40;99.90;;;;;;5013830;28;20044;-60
2021/05/13 02:32:16;;;;;;;21.33;6.05;;;11.50;99.90;;;;;;5011393;28;20487;-60
2021/05/13 02:34:42;;;;;;;18.23;5.65;;;11.50;99.90;;;;;;5011302;28;20488;-60
2021/05/13 02:37:08;;;;;;;17.60;5.13;;;11.40;99.90;;;;;;5010538;28;20074;-60
2021/05/13 02:39:33;;;;;;;24.48;6.13;;;11.40;99.90;;;;;;5011812;28;20147;-59
2021/05/13 02:41:59;;;;;;;19.60;5.80;;;11.40;99.90;;;;;;5010732;28;20041;-61
2021/05/13 02:44:25;;;;;;;41.17;7.57;;;11.40;99.90;;;;;;5011358;28;20042;-60
2021/05/13 02:46:50;;;;;;;19.88;5.75;;;11.40;99.90;;;;;;5010260;28;20492;-62
2021/05/13 02:49:16;;;;;;;17.80;5.60;;;11.40;99.90;;;;;;4993686;28;20503;-60
2021/05/13 02:51:42;;;;;;;21.70;6.82;;;11.40;99.90;;;;;;5010106;28;20496;-60
2021/05/13 02:54:07;;;;;;;23.52;7.88;;;11.40;99.90;;;;;;5011216;28;20480;-61
2021/05/13 02:56:33;;;;;;;18.92;6.82;;;11.40;99.90;;;;;;5010131;28;20053;-61
2021/05/13 02:58:59;;;;;;;24.35;7.13;;;11.50;99.90;;;;;;4992981;28;20038;-60
2021/05/13 03:01:26;;;;;;;25.38;8.15;;;11.50;99.90;;;;;;5010831;28;20030;-61
2021/05/13 03:03:54;;;;;;;23.63;7.90;;;11.60;99.90;;;;;;5025390;28;20042;-60
2021/05/13 03:06:24;;;;;;;22.20;8.60;;;11.60;99.90;;;;;;5010445;28;20088;-61
2021/05/13 03:08:55;;;;;;;20.30;9.95;;;11.60;99.90;;;;;;5010922;28;20377;-61
2021/05/13 03:11:23;;;;;;;21.67;8.88;;;11.50;99.90;;;;;;5009878;28;20125;-60
2021/05/13 03:13:52;;;;;;;28.23;10.43;;;11.60;99.90;;;;;;5011850;28;20120;-60
2021/05/13 03:16:18;;;;;;;24.05;10.48;;;11.50;99.90;;;;;;5022120;28;20387;-61
2021/05/13 03:18:47;;;;;;;29.80;11.18;;;11.50;99.90;;;;;;5010363;28;20056;-60
2021/05/13 03:21:24;;;;;;;28.95;11.02;;;11.60;99.90;;;;;;5010262;28;20053;-60
2021/05/13 03:23:56;;;;;;;23.92;11.82;;;11.60;99.90;;;;;;5013130;28;20049;-60
2021/05/13 03:26:37;;;;;;;22.75;11.30;;;11.60;99.90;;;;;;5010610;28;20034;-62
2021/05/13 03:29:04;;;;;;;72.38;15.55;;;11.50;99.90;;;;;;5011358;28;20120;-60
2021/05/13 03:31:30;;;;;;;26.17;11.85;;;11.60;99.90;;;;;;4992275;28;20124;-61
2021/05/13 03:33:55;;;;;;;30.35;13.80;;;11.70;99.90;;;;;;5010634;28;20437;-59
2021/05/13 03:36:21;;;;;;;27.73;13.38;;;11.60;99.90;;;;;;5010482;28;20049;-62
2021/05/13 03:38:47;;;;;;;26.80;13.10;;;11.60;99.90;;;;;;5010068;28;20042;-61
2021/05/13 03:41:13;;;;;;;29.63;14.32;;;11.60;99.90;;;;;;4992858;28;20427;-60
2021/05/13 03:43:38;;;;;;;28.65;15.45;;;11.60;99.90;;;;;;5010130;28;20112;-61
2021/05/13 03:46:04;;;;;;;28.02;14.20;;;11.60;99.90;;;;;;5010769;28;20045;-60
2021/05/13 03:48:30;;;;;;;31.80;14.77;;;11.50;99.90;;;;;;5009884;28;20534;-62
2021/05/13 03:50:55;;;;;;;35.05;14.70;;;11.50;99.90;;;;;;5010649;28;20064;-60
2021/05/13 03:53:21;;;;;;;29.00;16.92;;;11.50;99.90;;;;;;5009504;28;20109;-60
2021/05/13 03:55:51;;;;;;;30.08;16.35;;;11.60;99.90;;;;;;5010997;28;20052;-59
2021/05/13 03:58:20;;;;;;;29.33;15.70;;;11.50;99.90;;;;;;5009868;28;20480;-61
2021/05/13 04:01:01;;;;;;;28.83;15.68;;;11.50;99.90;;;;;;5010515;28;20102;-60
2021/05/13 04:03:27;;;;;;;32.45;16.50;;;11.50;99.90;;;;;;5011337;28;20056;-60
2021/05/13 04:05:52;;;;;;;35.78;17.05;;;11.40;99.90;;;;;;5015718;28;20034;-61
2021/05/13 04:08:19;;;;;;;32.33;16.55;;;11.40;99.90;;;;;;5010208;28;20034;-60
2021/05/13 04:10:45;;;;;;;36.83;16.55;;;11.30;99.90;;;;;;5014098;28;20061;-63
2021/05/13 04:13:13;;;;;;;34.30;16.33;;;11.40;99.90;;;;;;5013564;28;20050;-62
2021/05/13 04:15:38;;;;;;;32.15;16.15;;;11.40;99.90;;;;;;5013626;28;20421;-60
2021/05/13 04:18:04;;;;;;;32.35;17.00;;;11.40;99.90;;;;;;5013379;28;20104;-63
2021/05/13 04:20:30;;;;;;;34.60;16.85;;;11.40;99.90;;;;;;5013478;28;20430;-60
2021/05/13 04:22:56;;;;;;;35.40;16.65;;;11.40;99.90;;;;;;4994866;28;20084;-61
2021/05/13 04:25:21;;;;;;;37.88;17.70;;;11.40;99.90;;;;;;4996276;28;20049;-59
2021/05/13 04:27:50;;;;;;;31.40;16.30;;;11.40;99.90;;;;;;5014747;28;20038;-61
2021/05/13 04:30:16;;;;;;;28.45;16.27;;;11.50;99.90;;;;;;5009414;28;20045;-60
2021/05/13 04:32:41;;;;;;;30.20;16.90;;;11.50;99.90;;;;;;5013469;28;20037;-60
2021/05/13 04:35:08;;;;;;;29.90;16.05;;;11.40;99.90;;;;;;5013936;28;20037;-60
2021/05/13 04:37:33;;;;;;;34.45;16.15;;;11.50;99.90;;;;;;5012917;28;20038;-61
2021/05/13 04:39:59;;;;;;;31.25;16.17;;;11.50;99.90;;;;;;5013003;28;20101;-60
2021/05/13 04:42:25;;;;;;;31.50;16.25;;;11.50;99.90;;;;;;5013072;28;20038;-59
2021/05/13 04:44:53;;;;;;;30.27;15.80;;;11.50;99.90;;;;;;5016691;28;20029;-59
2021/05/13 04:47:26;;;;;;;30.77;14.90;;;11.50;99.90;;;;;;5018217;28;20052;-60
2021/05/13 04:49:53;;;;;;;31.55;15.93;;;11.50;99.90;;;;;;5021723;28;20124;-62
2021/05/13 04:52:21;;;;;;;28.95;15.10;;;11.50;99.90;;;;;;5012485;28;20168;-60
2021/05/13 04:54:51;;;;;;;25.30;14.05;;;11.40;99.90;;;;;;5013235;28;20041;-59
2021/05/13 04:57:17;;;;;;;28.40;14.25;;;11.50;99.90;;;;;;5012141;28;20034;-61
2021/05/13 04:59:44;;;;;;;30.73;14.30;;;11.50;99.90;;;;;;5013422;28;20093;-59
2021/05/13 05:02:10;;;;;;;30.80;14.70;;;11.60;99.90;;;;;;5012754;28;20064;-59
2021/05/13 05:04:35;;;;;;;34.22;14.50;;;11.50;99.90;;;;;;5012747;28;20038;-62
2021/05/13 05:07:01;;;;;;;29.73;13.93;;;11.60;99.90;;;;;;5012013;28;20128;-61
2021/05/13 05:09:27;;;;;;;30.60;15.23;;;11.60;99.90;;;;;;5018072;28;20040;-61
2021/05/13 05:11:53;;;;;;;31.30;14.52;;;11.60;99.90;;;;;;5027373;28;20029;-61
2021/05/13 05:14:18;;;;;;;32.75;14.35;;;11.60;99.90;;;;;;5012026;28;20046;-60
2021/05/13 05:16:44;;;;;;;28.63;14.25;;;11.60;99.90;;;;;;5013064;28;20104;-60
2021/05/13 05:19:10;;;;;;;27.27;14.55;;;11.70;99.90;;;;;;5011864;28;20038;-61
2021/05/13 05:21:36;;;;;;;25.83;13.73;;;11.70;99.90;;;;;;5012682;28;20065;-60
2021/05/13 05:24:02;;;;;;;30.77;14.43;;;11.60;99.90;;;;;;5014187;28;20041;-61
2021/05/13 05:26:27;;;;;;;30.65;15.27;;;11.50;99.90;;;;;;5012783;28;20486;-61
2021/05/13 05:28:53;;;;;;;32.10;15.32;;;11.60;99.90;;;;;;5012405;28;20065;-60
2021/05/13 05:31:19;;;;;;;32.20;15.38;;;11.60;99.90;;;;;;5026612;28;20476;-61
2021/05/13 05:33:45;;;;;;;31.33;15.07;;;11.50;99.90;;;;;;5012143;28;20041;-61
2021/05/13 05:36:10;;;;;;;26.85;14.73;;;11.60;99.90;;;;;;5012220;28;20077;-61
2021/05/13 05:38:36;;;;;;;26.27;15.13;;;11.60;99.90;;;;;;5016237;28;20038;-61
2021/05/13 05:41:02;;;;;;;28.00;15.43;;;11.50;99.90;;;;;;5012935;28;20865;-60
2021/05/13 05:43:28;;;;;;;30.13;15.85;;;11.50;99.90;;;;;;5011943;28;20038;-61
2021/05/13 05:45:53;;;;;;;27.63;15.52;;;11.60;99.90;;;;;;5012624;28;20137;-62
2021/05/13 05:48:19;;;;;;;29.10;15.35;;;11.60;99.90;;;;;;5011657;28;20052;-61
2021/05/13 05:50:45;;;;;;;24.63;14.93;;;11.70;99.90;;;;;;5012698;28;20053;-60
2021/05/13 05:56:32;;;;;;;29.42;15.18;;;11.60;99.90;;;;;;5014404;28;20029;-59
2021/05/13 05:58:58;;;;;;;30.50;15.88;;;11.70;99.90;;;;;;5013870;28;20045;-61
2021/05/13 06:01:24;;;;;;;31.00;16.08;;;11.60;99.90;;;;;;5014544;28;20029;-62
2021/05/13 06:07:30;;;;;;;29.02;17.08;;;11.60;99.90;;;;;;5014260;28;20116;-60
2021/05/13 06:09:56;;;;;;;32.67;17.42;;;11.70;99.90;;;;;;5013665;28;20078;-61
2021/05/13 06:12:22;;;;;;;29.88;16.30;;;11.70;99.90;;;;;;5013797;28;20042;-60
2021/05/13 06:18:22;;;;;;;29.88;16.52;;;11.80;99.90;;;;;;5013772;28;20100;-59
2021/05/13 06:20:48;;;;;;;42.92;21.67;;;11.80;99.90;;;;;;5013829;28;20053;-60
2021/05/13 06:23:15;;;;;;;36.53;17.98;;;11.80;99.90;;;;;;5011955;28;20042;-62
2021/05/13 06:25:41;;;;;;;35.33;17.08;;;11.80;99.90;;;;;;5010874;28;20037;-61
2021/05/13 06:28:07;;;;;;;33.03;17.10;;;11.80;99.90;;;;;;5003991;28;20038;-60
2021/05/13 06:30:33;;;;;;;35.40;17.83;;;11.80;99.90;;;;;;5011016;28;20041;-61
2021/05/13 06:32:59;;;;;;;30.52;16.90;;;11.90;99.90;;;;;;5010348;28;20034;-58
2021/05/13 06:35:24;;;;;;;29.27;17.08;;;11.90;99.90;;;;;;5011199;28;20054;-60
2021/05/13 06:37:50;;;;;;;33.00;18.02;;;11.90;99.90;;;;;;5010737;28;20093;-60
2021/05/13 06:40:17;;;;;;;34.33;17.95;;;11.90;99.90;;;;;;5010855;28;20034;-61
2021/05/13 06:42:42;;;;;;;39.05;18.77;;;11.90;99.90;;;;;;5010872;28;20441;-60
2021/05/13 06:45:09;;;;;;;32.42;18.45;;;11.90;99.90;;;;;;5010401;28;20120;-60
2021/05/13 06:47:38;;;;;;;36.83;18.83;;;12.00;99.90;;;;;;5011429;28;20061;-60
2021/05/13 06:50:04;;;;;;;37.45;18.77;;;12.00;99.90;;;;;;5008310;28;20092;-60
2021/05/13 06:52:30;;;;;;;36.70;18.35;;;12.10;99.90;;;;;;5011293;28;20049;-60
2021/05/13 06:54:56;;;;;;;35.80;18.20;;;12.10;99.90;;;;;;5010029;28;20453;-60
2021/05/13 06:57:21;;;;;;;32.40;18.35;;;12.10;99.90;;;;;;5011292;28;20038;-61
2021/05/13 06:59:47;;;;;;;35.03;18.98;;;12.10;99.90;;;;;;5011573;28;20045;-60
2021/05/13 07:02:15;;;;;;;42.53;21.95;;;12.10;99.90;;;;;;5018028;28;20079;-60
2021/05/13 07:04:40;;;;;;;32.50;19.70;;;12.10;99.90;;;;;;4992237;28;20548;-60
2021/05/13 07:07:07;;;;;;;36.00;18.77;;;12.20;99.90;;;;;;5010687;28;20169;-61
2021/05/13 07:09:33;;;;;;;33.63;19.27;;;12.20;99.90;;;;;;5008530;28;20479;-60
2021/05/13 07:11:59;;;;;;;31.02;17.83;;;12.30;99.90;;;;;;5012423;28;20056;-60
2021/05/13 07:14:25;;;;;;;37.20;19.77;;;12.50;99.90;;;;;;5016509;28;20572;-60
2021/05/13 07:16:50;;;;;;;35.95;19.15;;;12.50;99.90;;;;;;5010519;28;20507;-60
2021/05/13 07:19:18;;;;;;;58.00;20.15;;;12.50;99.90;;;;;;5009791;28;20061;-60
2021/05/13 07:21:44;;;;;;;38.33;20.08;;;12.50;99.90;;;;;;5009973;28;20519;-60
2021/05/13 07:24:10;;;;;;;47.47;21.20;;;12.70;99.90;;;;;;5009503;28;20153;-60
2021/05/13 07:26:36;;;;;;;39.83;20.23;;;12.70;99.90;;;;;;5014409;28;20041;-63
2021/05/13 07:29:01;;;;;;;39.45;19.95;;;12.80;99.90;;;;;;5008520;28;20038;-59
2021/05/13 07:31:27;;;;;;;34.72;18.92;;;12.90;99.90;;;;;;5011658;28;20442;-61
2021/05/13 07:33:54;;;;;;;34.03;19.92;;;13.10;99.90;;;;;;5009615;28;20057;-60
2021/05/13 07:36:19;;;;;;;40.00;20.75;;;12.90;99.90;;;;;;5010173;28;20072;-60
2021/05/13 07:38:46;;;;;;;48.38;19.98;;;12.90;99.90;;;;;;5009433;28;20054;-61
2021/05/13 07:41:14;;;;;;;48.45;20.02;;;12.90;99.90;;;;;;5009412;28;20472;-61
2021/05/13 07:43:42;;;;;;;38.42;20.60;;;13.10;99.90;;;;;;5013355;28;20038;-60
2021/05/13 07:46:08;;;;;;;38.22;19.77;;;13.30;99.90;;;;;;5017612;28;20153;-62
2021/05/13 07:48:34;;;;;;;45.08;19.80;;;13.30;99.90;;;;;;5013648;28;20053;-62
2021/05/13 07:51:00;;;;;;;39.78;20.35;;;13.40;99.90;;;;;;5014539;28;20041;-60
2021/05/13 07:53:26;;;;;;;46.65;20.58;;;13.60;99.90;;;;;;5011261;28;20045;-60
2021/05/13 07:55:53;;;;;;;39.55;20.40;;;13.60;99.90;;;;;;5013884;28;20065;-62
2021/05/13 07:58:19;;;;;;;36.55;19.70;;;13.50;99.90;;;;;;5013121;28;20487;-60
2021/05/13 08:00:45;;;;;;;65.28;22.98;;;13.60;99.90;;;;;;5013230;28;20044;-63
2021/05/13 08:03:11;;;;;;;37.20;19.70;;;13.70;99.90;;;;;;5013675;28;20438;-60
2021/05/13 08:05:37;;;;;;;34.25;20.55;;;13.80;99.90;;;;;;5013172;28;20064;-60
2021/05/13 08:08:04;;;;;;;49.97;20.83;;;13.70;99.90;;;;;;5013864;28;20468;-60
2021/05/13 08:10:30;;;;;;;43.45;19.52;;;13.60;99.90;;;;;;5012633;28;20041;-59
2021/05/13 08:12:56;;;;;;;33.53;19.15;;;13.70;99.90;;;;;;5013439;28;20403;-62
2021/05/13 08:15:22;;;;;;;40.15;19.25;;;13.70;99.90;;;;;;5013473;28;20049;-60
2021/05/13 08:17:48;;;;;;;47.17;20.75;;;13.80;99.90;;;;;;5013700;28;20100;-60
2021/05/13 08:20:16;;;;;;;34.03;19.60;;;13.80;99.90;;;;;;5013196;28;20046;-59
2021/05/13 08:22:44;;;;;;;36.53;19.45;;;13.80;99.90;;;;;;5013459;28;20041;-62
2021/05/13 08:25:10;;;;;;;35.45;20.63;;;13.80;99.90;;;;;;5013487;28;20088;-60
2021/05/13 08:27:36;;;;;;;36.17;20.02;;;13.90;99.90;;;;;;5012055;28;20555;-61
2021/05/13 08:30:05;;;;;;;39.03;19.52;;;14.30;99.90;;;;;;5013504;28;20057;-60
2021/05/13 08:32:30;;;;;;;30.98;18.23;;;14.60;99.90;;;;;;5013545;28;20038;-61
2021/05/13 08:34:56;;;;;;;38.75;18.83;;;14.80;99.90;;;;;;5012975;28;20455;-59
2021/05/13 08:37:22;;;;;;;38.38;17.48;;;15.20;99.90;;;;;;4995756;28;20164;-62
2021/05/13 08:39:48;;;;;;;29.13;14.85;;;15.60;99.90;;;;;;5012737;28;20042;-62
2021/05/13 08:42:14;;;;;;;29.77;15.05;;;15.50;99.90;;;;;;5012619;28;20511;-61
2021/05/13 08:44:41;;;;;;;29.27;15.23;;;15.60;99.90;;;;;;5012032;28;20511;-62
2021/05/13 08:47:08;;;;;;;28.60;14.93;;;15.60;99.90;;;;;;5013872;28;20819;-62
2021/05/13 08:49:35;;;;;;;34.10;16.92;;;15.60;99.90;;;;;;5012193;28;20053;-58
2021/05/13 08:52:01;;;;;;;36.10;16.10;;;15.40;99.90;;;;;;5012795;28;20037;-60
2021/05/13 08:54:28;;;;;;;34.30;15.93;;;15.50;99.90;;;;;;4993458;28;20038;-61
2021/05/13 08:56:53;;;;;;;32.33;15.40;;;15.50;99.90;;;;;;5013630;28;20038;-61
2021/05/13 08:59:19;;;;;;;31.40;14.52;;;15.50;99.90;;;;;;4994322;28;20430;-61
2021/05/13 09:01:59;;;;;;;27.80;14.27;;;15.30;99.90;;;;;;5012651;28;20072;-61
2021/05/13 09:04:41;;;;;;;29.92;14.23;;;15.20;99.90;;;;;;5012586;28;20044;-59
2021/05/13 09:07:17;;;;;;;25.25;13.73;;;15.10;99.90;;;;;;5012470;28;20038;-61
2021/05/13 09:09:57;;;;;;;37.05;14.98;;;15.00;99.90;;;;;;5012157;28;20038;-61
2021/05/13 09:12:25;;;;;;;35.33;13.95;;;15.00;99.90;;;;;;5011675;28;20038;-58
2021/05/13 09:15:03;;;;;;;26.27;14.00;;;15.10;99.90;;;;;;5011735;28;20132;-61
2021/05/13 09:17:31;;;;;;;31.20;13.30;;;15.30;99.90;;;;;;5012406;28;20034;-60
2021/05/13 09:19:59;;;;;;;24.45;12.93;;;15.30;99.90;;;;;;5011988;28;20061;-60
2021/05/13 09:22:28;;;;;;;26.48;11.82;;;15.40;99.90;;;;;;5007611;28;20041;-62
2021/05/13 09:25:07;;;;;;;22.48;11.98;;;15.40;99.90;;;;;;5010749;28;20034;-61
2021/05/13 09:27:40;;;;;;;33.03;12.45;;;15.30;99.90;;;;;;5011878;28;20549;-61
2021/05/13 09:30:16;;;;;;;35.67;12.02;;;15.60;99.90;;;;;;5007498;28;20116;-61
2021/05/13 09:32:45;;;;;;;28.48;11.07;;;15.70;99.90;;;;;;5012456;28;20071;-60
2021/05/13 09:35:13;;;;;;;26.15;10.85;;;15.70;99.90;;;;;;5006976;28;20065;-61
2021/05/13 09:37:59;;;;;;;22.85;10.50;;;15.80;99.90;;;;;;5011278;28;20068;-61
2021/05/13 09:40:38;;;;;;;24.65;12.00;;;15.90;99.90;;;;;;5003058;28;20038;-60
2021/05/13 09:43:14;;;;;;;29.50;13.55;;;16.00;99.90;;;;;;5011863;28;20093;-59
2021/05/13 09:45:45;;;;;;;27.15;11.25;;;16.00;99.90;;;;;;5010894;28;20058;-60
2021/05/13 09:48:11;;;;;;;24.02;10.20;;;16.00;99.90;;;;;;5011004;28;20048;-63
2021/05/13 09:50:37;;;;;;;20.80;9.32;;;16.30;99.90;;;;;;5011919;28;20037;-59
2021/05/13 09:53:03;;;;;;;24.58;9.40;;;16.30;99.90;;;;;;5012497;28;20037;-60
2021/05/13 09:55:33;;;;;;;27.52;9.30;;;16.40;99.90;;;;;;5011579;28;20045;-61
2021/05/13 09:58:04;;;;;;;18.13;8.30;;;16.60;99.90;;;;;;4994575;28;20141;-60
2021/05/13 10:00:48;;;;;;;19.17;8.25;;;16.70;99.90;;;;;;5011554;28;20109;-60
2021/05/13 10:03:19;;;;;;;18.63;7.38;;;17.00;99.90;;;;;;5011308;28;20080;-60
2021/05/13 10:05:50;;;;;;;18.40;6.68;;;17.20;99.90;;;;;;5009327;28;20042;-61
2021/05/13 10:08:16;;;;;;;26.05;7.75;;;17.40;99.90;;;;;;5011592;28;20045;-60
2021/05/13 10:10:42;;;;;;;20.40;8.23;;;17.50;99.90;;;;;;5010873;28;20026;-61
2021/05/13 10:13:09;;;;;;;19.17;8.20;;;17.50;99.90;;;;;;5010807;28;20088;-60
2021/05/13 10:15:41;;;;;;;19.17;7.38;;;17.60;99.90;;;;;;5009264;28;20045;-60
2021/05/13 10:18:35;;;;;;;21.00;6.63;;;17.50;99.90;;;;;;5010139;28;20088;-59
2021/05/13 10:21:08;;;;;;;12.45;5.93;;;17.30;99.90;;;;;;5003707;28;20050;-60
2021/05/13 10:23:36;;;;;;;19.52;6.88;;;17.30;99.90;;;;;;5008220;28;20041;-58
2021/05/13 10:26:02;;;;;;;15.48;6.10;;;17.30;99.90;;;;;;5008323;28;20042;-61
2021/05/13 10:28:30;;;;;;;12.40;5.80;;;17.30;99.90;;;;;;5010466;28;20119;-59
2021/05/13 10:31:02;;;;;;;16.48;5.97;;;17.30;99.90;;;;;;5009984;28;20109;-59
2021/05/13 10:33:44;;;;;;;15.52;5.68;;;17.30;99.90;;;;;;5011049;28;20388;-58
2021/05/13 10:36:15;;;;;;;14.50;5.78;;;17.20;99.90;;;;;;5005423;28;20061;-60
2021/05/13 10:38:44;;;;;;;18.67;5.65;;;17.30;99.90;;;;;;5005320;28;20407;-59
2021/05/13 10:41:31;;;;;;;14.43;5.72;;;17.20;99.90;;;;;;4999727;28;20038;-60
2021/05/13 10:44:18;;;;;;;14.88;5.53;;;17.20;99.90;;;;;;4993084;28;20112;-60
2021/05/13 10:46:55;;;;;;;15.70;5.30;;;17.40;99.90;;;;;;4995918;28;20049;-59
2021/05/13 10:49:23;;;;;;;16.05;6.55;;;16.90;99.90;;;;;;5005381;28;20061;-60
2021/05/13 10:51:51;;;;;;;15.50;5.45;;;17.00;99.90;;;;;;5003981;28;20369;-59
2021/05/13 10:54:29;;;;;;;19.95;6.47;;;17.00;99.90;;;;;;5009675;28;20046;-59
2021/05/13 10:57:18;;;;;;;15.25;5.32;;;17.10;99.90;;;;;;5008278;28;20104;-59
2021/05/13 11:00:23;;;;;;;11.88;4.65;;;17.30;99.90;;;;;;4996652;28;20029;-59
2021/05/13 11:02:49;;;;;;;18.83;6.47;;;17.60;99.90;;;;;;4929239;29;20517;-60
2021/05/13 11:05:27;;;;;;;14.50;4.18;;;17.70;99.90;;;;;;4927396;29;20054;-58
2021/05/13 11:07:53;;;;;;;10.73;3.30;;;17.60;99.90;;;;;;4970794;28;20030;-59
2021/05/13 11:10:20;;;;;;;13.13;4.22;;;17.30;99.90;;;;;;5008166;28;20050;-60
2021/05/13 11:12:45;;;;;;;13.13;4.15;;;17.10;99.90;;;;;;5009687;28;20076;-61
2021/05/13 11:15:21;;;;;;;9.65;3.90;;;17.10;99.90;;;;;;5008815;28;20077;-59
2021/05/13 11:17:50;;;;;;;11.85;4.22;;;17.00;99.90;;;;;;5006371;28;20041;-60
2021/05/13 11:20:31;;;;;;;18.67;4.47;;;17.00;99.90;;;;;;5007674;28;20038;-58
2021/05/13 11:23:14;;;;;;;13.13;5.05;;;17.20;99.90;;;;;;5015861;28;20049;-60
2021/05/13 11:25:44;;;;;;;15.88;4.97;;;17.20;99.90;;;;;;5008533;28;20065;-61
2021/05/13 11:28:33;;;;;;;15.50;5.35;;;17.10;99.90;;;;;;5008806;28;20046;-60
2021/05/13 11:31:05;;;;;;;12.38;4.10;;;17.10;99.90;;;;;;5006738;28;20116;-58
2021/05/13 11:33:49;;;;;;;22.90;4.90;;;17.00;99.90;;;;;;5010385;28;20136;-61
2021/05/13 11:36:39;;;;;;;12.52;3.83;;;16.80;99.90;;;;;;5007102;28;20103;-59
2021/05/13 11:39:12;;;;;;;15.32;3.90;;;16.90;99.90;;;;;;4995041;28;20037;-61
2021/05/13 11:41:42;;;;;;;12.90;4.18;;;17.00;99.90;;;;;;5008211;28;20049;-59
2021/05/13 11:44:08;;;;;;;13.73;4.38;;;17.20;99.90;;;;;;5011084;28;20488;-60
2021/05/13 11:46:37;;;;;;;12.18;3.58;;;17.00;99.90;;;;;;5024331;28;20030;-59
2021/05/13 11:49:04;;;;;;;13.65;4.63;;;17.00;99.90;;;;;;5009600;28;20049;-59
2021/05/13 11:51:31;;;;;;;13.38;4.50;;;16.90;99.90;;;;;;4989945;28;20408;-61
2021/05/13 11:53:59;;;;;;;11.23;4.35;;;16.70;99.90;;;;;;5009430;28;20042;-59
2021/05/13 11:56:28;;;;;;;15.38;4.95;;;16.80;99.90;;;;;;5007566;28;20033;-59
2021/05/13 11:58:58;;;;;;;11.38;3.80;;;16.80;99.90;;;;;;5010713;28;20049;-61
2021/05/13 12:01:28;;;;;;;13.90;3.78;;;16.80;99.90;;;;;;4985024;28;20513;-58
2021/05/13 12:04:10;;;;;;;8.95;3.10;;;16.60;99.90;;;;;;4995751;28;20046;-60
2021/05/13 12:06:59;;;;;;;11.85;3.78;;;16.50;99.90;;;;;;5006361;28;20034;-59
2021/05/13 12:09:26;;;;;;;18.95;3.58;;;16.40;99.90;;;;;;4990606;28;20056;-61
2021/05/13 12:11:53;;;;;;;10.32;3.80;;;16.50;99.90;;;;;;5009155;28;20061;-61
2021/05/13 12:14:25;;;;;;;12.27;3.20;;;16.50;99.90;;;;;;5007878;28;20377;-59
2021/05/13 12:16:56;;;;;;;15.93;3.55;;;16.40;99.90;;;;;;5004909;28;20045;-59
2021/05/13 12:19:22;;;;;;;11.18;3.30;;;16.50;99.90;;;;;;5006252;28;20042;-59
2021/05/13 12:21:53;;;;;;;15.32;3.85;;;16.60;99.90;;;;;;5009557;28;20099;-61
2021/05/13 12:24:46;;;;;;;14.77;3.83;;;16.70;99.90;;;;;;5008386;28;20050;-60
2021/05/13 12:27:15;;;;;;;17.25;5.72;;;16.80;99.90;;;;;;5007269;28;20057;-59
2021/05/13 12:29:50;;;;;;;13.80;3.45;;;16.80;99.90;;;;;;5009469;28;20072;-60
2021/05/13 12:32:36;;;;;;;13.90;4.35;;;16.80;99.90;;;;;;5012659;28;20049;-60
2021/05/13 12:35:26;;;;;;;14.85;4.00;;;16.80;99.90;;;;;;5012317;28;20088;-60
2021/05/13 12:37:53;;;;;;;17.33;5.47;;;17.00;99.90;;;;;;5011193;28;20042;-60
2021/05/13 12:40:19;;;;;;;15.13;5.63;;;17.00;99.90;;;;;;5012175;28;20038;-59
2021/05/13 12:42:45;;;;;;;18.98;6.32;;;16.90;99.90;;;;;;5013989;28;20048;-59
2021/05/13 12:45:17;;;;;;;19.42;6.30;;;16.90;99.90;;;;;;5012784;28;20105;-60
2021/05/13 12:47:45;;;;;;;16.00;7.28;;;17.10;99.90;;;;;;5011228;28;20033;-59
2021/05/13 12:50:11;;;;;;;21.17;6.50;;;17.20;99.90;;;;;;5010527;28;20073;-60
2021/05/13 12:52:39;;;;;;;18.55;7.72;;;17.10;99.90;;;;;;5011975;28;20105;-59